• Join FlightAware (Why Join?)
  • Login
  • US Flag 
02:10AM EDT


 

Airport Tracker/Info


-or-


 

Live Flight TrackerFlight Track Log ✈ SKW5246 ✈ 05-Jul-2013 ✈ KSFO - KBOI

Flight Track Log - Related Links

Times and Time Zones

All times are in EDT time to prevent confusion due to time zone crossing. See the SKW5246 flight status page for this flight to view local times or setup timezone preferences in your user account.

Time Position Orientation Groundspeed Altitude Reporting Facility
EDT Latitude Longitude Course Direction KTS MPH feet Rate Location/Type
07:46PM 37.6333 -122.3833 22° Northeast 145 167 800  Level Northern Cal TRACON
07:47PM 37.6667 -122.3667 22° Northeast 201 231 2,700 1,860 Climbing Northern Cal TRACON
07:48PM 37.7000 -122.3000 58° Northeast 263 303 4,600 1,920 Climbing Northern Cal TRACON
07:50PM 37.8131 -122.1917 37° Northeast 285 328 8,400 1,980 Climbing Oakland Center
07:51PM 37.8800 -122.1236 39° Northeast 304 350 10,500 1,560 Climbing Oakland Center
07:52PM 37.9711 -122.0319 38° Northeast 355 409 11,600 1,380 Climbing Oakland Center
07:53PM 38.0519 -121.9525 38° Northeast 369 425 13,400 1,860 Climbing Oakland Center
07:54PM 38.1306 -121.8733 38° Northeast 363 418 15,500 1,680 Climbing Oakland Center
07:55PM 38.2081 -121.7928 39° Northeast 362 417 16,900 1,440 Climbing Oakland Center
07:56PM 38.2897 -121.7144 37° Northeast 368 423 18,500 1,440 Climbing Oakland Center
07:57PM 38.3736 -121.6350 37° Northeast 376 433 19,900 1,320 Climbing Oakland Center
07:58PM 38.4567 -121.5569 36° Northeast 379 436 21,300 1,080 Climbing Oakland Center
07:59PM 38.5447 -121.4725 37° Northeast 385 443 22,200 840 Climbing Oakland Center
08:00PM 38.6331 -121.3900 36° Northeast 394 453 23,100 900 Climbing Oakland Center
08:01PM 38.7281 -121.3003 36° Northeast 406 467 24,100 900 Climbing Oakland Center
08:02PM 38.8208 -121.2111 37° Northeast 411 473 25,000 840 Climbing Oakland Center
08:03PM 38.9147 -121.1214 37° Northeast 417 480 25,900 780 Climbing Oakland Center
08:04PM 39.0086 -121.0306 37° Northeast 421 484 26,600 660 Climbing Oakland Center
08:05PM 39.1225 -120.9194 37° Northeast 427 491 27,300 600 Climbing Oakland Center
08:06PM 39.2178 -120.8247 38° Northeast 432 497 27,900 540 Climbing Oakland Center
08:07PM 39.3161 -120.7306 37° Northeast 438 504 28,500 480 Climbing Oakland Center
08:08PM 39.4144 -120.6347 37° Northeast 441 507 28,900 480 Climbing Oakland Center
08:09PM 39.5144 -120.5389 36° Northeast 446 513 29,500 660 Climbing Oakland Center
08:10PM 39.6147 -120.4422 37° Northeast 448 516 30,300 780 Climbing Oakland Center
08:11PM 39.7106 -120.3461 38° Northeast 439 505 31,200 480 Climbing Oakland Center
08:12PM 39.8083 -120.2483 38° Northeast 441 507 31,400 300 Climbing Oakland Center
08:13PM 39.9078 -120.1489 37° Northeast 449 517 31,900 540 Climbing Oakland Center
08:14PM 40.0100 -120.0469 37° Northeast 451 519 32,500 540 Climbing Oakland Center
08:15PM 40.1119 -119.9450 37° Northeast 457 526 33,000 240 Climbing Oakland Center
08:16PM 40.2114 -119.8439 38° Northeast 451 519 33,000  Level Oakland Center
08:17PM 40.3136 -119.7400 38° Northeast 460 529 33,000  Level Oakland Center
08:18PM 40.4097 -119.6267 42° Northeast 466 536 33,000  Level Oakland Center
08:19PM 40.5031 -119.5033 45° Northeast 472 543 33,000  Level Oakland Center
08:20PM 40.6144 -119.3583 45° Northeast 470 541 33,000  Level Oakland Center
08:21PM 40.7067 -119.2339 46° Northeast 471 542 33,000  Level Oakland Center
08:22PM 40.8003 -119.1097 45° Northeast 475 547 33,000  Level Oakland Center
08:23PM 40.8847 -119.0008 44° Northeast 474 545 33,000  Level Oakland Center
08:24PM 40.9886 -118.8644 45° Northeast 472 543 33,000  Level Oakland Center
08:25PM 41.0800 -118.7458 44° Northeast 476 548 33,000  Level Oakland Center
08:26PM 41.1747 -118.6306 42° Northeast 480 552 33,000  Level Oakland Center
08:27PM 41.2756 -118.4850 47° Northeast 480 552 33,000  Level Oakland Center
08:28PM 41.3594 -118.3533 50° Northeast 482 555 33,000  Level Oakland Center
08:29PM 41.4428 -118.2253 49° Northeast 477 549 33,000  Level Oakland Center
08:31PM 41.5697 -118.0314 49° Northeast 483 556 33,000  Level Salt Lake Center
08:32PM 41.6647 -117.8781 50° Northeast 478 550 33,000  Level Salt Lake Center
08:33PM 41.7453 -117.7414 52° Northeast 485 558 33,000  Level Salt Lake Center
08:34PM 41.8406 -117.5797 52° Northeast 486 559 33,000  Level Salt Lake Center
08:35PM 41.9186 -117.4431 52° Northeast 481 554 33,000  Level Salt Lake Center
08:36PM 42.0039 -117.3175 48° Northeast 473 544 33,000  Level Salt Lake Center
08:37PM 42.1164 -117.1925 39° Northeast 466 536 33,000  Level Salt Lake Center
08:38PM 42.2244 -117.1086 30° Northeast 468 539 33,000 -240 Level Salt Lake Center
08:39PM 42.3447 -117.0317 25° Northeast 467 537 32,600 -1,440 Descending Salt Lake Center
08:40PM 42.4706 -116.9492 26° Northeast 450 518 30,100 -2,760 Descending Salt Lake Center
08:41PM 42.5800 -116.8775 26° Northeast 454 522 27,000 -3,060 Descending Salt Lake Center
08:42PM 42.6883 -116.8061 26° Northeast 453 521 23,900 -3,300 Descending Salt Lake Center
08:43PM 42.8117 -116.7269 25° Northeast 436 502 20,300 -3,420 Descending Salt Lake Center
08:44PM 42.9150 -116.6564 27° Northeast 424 488 17,000 -3,120 Descending Salt Lake Center
08:45PM 43.0208 -116.5878 25° Northeast 403 464 14,000 -1,980 Descending Salt Lake Center
08:46PM 43.1147 -116.5247 26° Northeast 357 411 13,000 -1,380 Descending Salt Lake Center
08:47PM 43.1983 -116.4722 25° Northeast 319 367 11,300 -1,740 Descending Salt Lake Center
08:48PM 43.2744 -116.4258 24° Northeast 311 358 9,500 -1,800 Descending Salt Lake Center
08:49PM 43.3389 -116.3444 43° Northeast 302 348 7,700 -1,800 Descending Salt Lake Center
08:50PM 43.3989 -116.2672 43° Northeast 287 330 5,900 -1,500 Descending Salt Lake Center
08:51PM 43.4528 -116.1992 43° Northeast 275 316 4,700 -720 Descending Salt Lake Center
08:52PM 43.4994 -116.1319 46° Northeast 236 272 4,500 -420 Descending Salt Lake Center
08:53PM 43.5383 -116.1467 345° North 169 194 3,900 -480 Descending Salt Lake Center
08:54PM 43.5514 -116.1839 296° West 148 170 3,600 -300 Descending Salt Lake Center
08:56PM 43.5500 -116.2167 36° Northeast  Level FlightAware Approximate
09:03PM 43.5644 -116.2229 36° Northeast  Level Estimated